createdAt,value
2018-12-08T00:01:52.372Z,8.57
2018-12-08T00:04:19.617Z,7.47
2018-12-08T00:06:46.872Z,8.30
2018-12-08T00:09:14.245Z,8.00
2018-12-08T00:11:42.483Z,8.07
2018-12-08T00:14:10.137Z,6.80
2018-12-08T00:16:37.499Z,7.13
2018-12-08T00:19:04.824Z,8.37
2018-12-08T00:21:32.123Z,8.80
2018-12-08T00:23:59.424Z,9.13
2018-12-08T00:26:26.676Z,4.90
2018-12-08T00:28:54.037Z,4.10
2018-12-08T00:31:32.967Z,2.40
2018-12-08T00:34:00.221Z,1.13
2018-12-08T00:36:27.487Z,0.80
2018-12-08T00:38:54.842Z,0.90
2018-12-08T00:41:22.122Z,0.63
2018-12-08T00:43:49.475Z,0.60
2018-12-08T00:46:16.718Z,0.77
2018-12-08T00:48:43.977Z,1.20
2018-12-08T00:51:11.224Z,0.70
2018-12-08T00:53:38.505Z,1.20
2018-12-08T00:56:05.751Z,1.00
2018-12-08T00:58:32.962Z,1.13
2018-12-08T01:01:00.222Z,1.10
2018-12-08T01:03:27.485Z,1.10
2018-12-08T01:05:54.704Z,1.10
2018-12-08T01:08:21.971Z,0.90
2018-12-08T01:10:49.335Z,1.13
2018-12-08T01:13:16.711Z,1.87
2018-12-08T01:15:44.133Z,1.30
2018-12-08T01:18:11.606Z,1.00
2018-12-08T01:20:38.886Z,1.30
2018-12-08T01:23:06.233Z,1.53
2018-12-08T01:25:33.498Z,1.73
2018-12-08T01:28:00.724Z,1.50
2018-12-08T01:30:28.017Z,1.50
2018-12-08T01:32:55.374Z,1.30
2018-12-08T01:35:22.657Z,1.40
2018-12-08T01:37:49.954Z,1.80
2018-12-08T01:40:17.208Z,1.03
2018-12-08T01:42:49.037Z,1.37
2018-12-08T01:45:16.560Z,1.70
2018-12-08T01:47:43.813Z,1.40
2018-12-08T01:50:11.162Z,1.23
2018-12-08T01:52:38.432Z,2.20
2018-12-08T01:55:05.903Z,2.40
2018-12-08T01:57:33.244Z,2.63
2018-12-08T02:00:00.492Z,1.73
2018-12-08T02:02:27.713Z,2.77
2018-12-08T02:04:54.961Z,1.90
2018-12-08T02:07:22.249Z,2.20
2018-12-08T02:09:49.503Z,1.80
2018-12-08T02:12:16.724Z,2.00
2018-12-08T02:14:44.002Z,1.53
2018-12-08T02:17:11.242Z,1.50
2018-12-08T02:19:38.533Z,1.40
2018-12-08T02:22:05.833Z,1.57
2018-12-08T02:24:33.089Z,1.40
2018-12-08T02:27:00.566Z,1.30
2018-12-08T02:29:27.956Z,1.53
2018-12-08T02:31:55.354Z,1.30
2018-12-08T02:34:22.608Z,1.50
2018-12-08T02:36:49.889Z,2.07
2018-12-08T02:39:17.183Z,2.60
2018-12-08T02:41:44.383Z,2.90
2018-12-08T02:44:11.669Z,2.67
2018-12-08T02:46:38.929Z,2.53
2018-12-08T02:49:06.196Z,2.77
2018-12-08T02:51:33.489Z,2.90
2018-12-08T02:54:00.707Z,2.23
2018-12-08T02:56:28.033Z,2.40
2018-12-08T02:58:55.293Z,2.63
2018-12-08T03:01:22.645Z,2.83
2018-12-08T03:03:49.990Z,2.60
2018-12-08T03:06:17.327Z,3.27
2018-12-08T03:08:44.685Z,3.23
2018-12-08T03:11:11.925Z,3.33
2018-12-08T03:13:39.220Z,3.40
2018-12-08T03:16:06.528Z,4.10
2018-12-08T03:18:33.825Z,3.83
2018-12-08T03:21:01.151Z,4.47
2018-12-08T03:23:28.400Z,4.43
2018-12-08T03:25:55.659Z,3.43
2018-12-08T03:28:22.948Z,4.20
2018-12-08T03:30:50.159Z,4.50
2018-12-08T03:33:18.126Z,4.87
2018-12-08T03:35:45.553Z,3.87
2018-12-08T03:38:12.784Z,4.07
2018-12-08T03:40:40.061Z,3.77
2018-12-08T03:43:07.338Z,4.23
2018-12-08T03:45:34.712Z,4.70
2018-12-08T03:48:01.953Z,4.30
2018-12-08T03:50:29.240Z,4.57
2018-12-08T03:52:56.492Z,3.70
2018-12-08T03:55:23.865Z,3.70
2018-12-08T03:57:51.121Z,4.07
2018-12-08T04:00:18.505Z,4.70
2018-12-08T04:02:45.891Z,4.47
2018-12-08T04:05:13.281Z,3.67
2018-12-08T04:07:40.513Z,4.30
2018-12-08T04:10:07.966Z,3.53
2018-12-08T04:12:35.351Z,3.83
2018-12-08T04:15:02.739Z,3.73
2018-12-08T04:17:29.996Z,3.53
2018-12-08T04:19:57.263Z,3.43
2018-12-08T04:22:24.484Z,3.90
2018-12-08T04:24:51.817Z,4.00
2018-12-08T04:27:19.228Z,4.80
2018-12-08T04:29:46.450Z,4.20
2018-12-08T04:32:13.668Z,4.37
2018-12-08T04:34:40.923Z,4.00
2018-12-08T04:37:08.132Z,4.47
2018-12-08T04:39:35.364Z,4.60
2018-12-08T04:42:02.634Z,4.27
2018-12-08T04:44:29.904Z,4.10
2018-12-08T04:46:57.145Z,5.10
2018-12-08T04:49:24.431Z,4.37
2018-12-08T04:51:51.737Z,4.20
2018-12-08T04:54:18.961Z,4.57
2018-12-08T04:56:46.253Z,3.90
2018-12-08T04:59:13.508Z,4.23
2018-12-08T05:01:40.740Z,3.90
2018-12-08T05:04:08.087Z,4.20
2018-12-08T05:06:35.366Z,4.03
2018-12-08T05:09:04.652Z,3.73
2018-12-08T05:11:31.920Z,3.33
2018-12-08T05:13:59.144Z,4.07
2018-12-08T05:16:26.498Z,5.07
2018-12-08T05:18:53.773Z,4.23
2018-12-08T05:21:21.105Z,4.10
2018-12-08T05:23:48.419Z,3.50
2018-12-08T05:26:15.672Z,3.27
2018-12-08T05:28:42.997Z,3.87
2018-12-08T05:31:10.225Z,3.57
2018-12-08T05:33:37.503Z,3.17
2018-12-08T05:36:04.730Z,4.07
2018-12-08T05:38:31.965Z,3.67
2018-12-08T05:40:59.214Z,3.80
2018-12-08T05:43:26.570Z,4.20
2018-12-08T05:45:53.804Z,4.00
2018-12-08T05:48:21.072Z,3.53
2018-12-08T05:50:48.339Z,4.20
2018-12-08T05:53:15.563Z,4.03
2018-12-08T05:55:42.844Z,3.10
2018-12-08T05:58:10.055Z,3.97
2018-12-08T06:00:37.398Z,4.27
2018-12-08T06:03:04.914Z,2.90
2018-12-08T06:05:32.213Z,3.10
2018-12-08T06:07:59.468Z,2.97
2018-12-08T06:10:26.711Z,2.97
2018-12-08T06:12:53.951Z,3.33
2018-12-08T06:15:21.268Z,3.67
2018-12-08T06:17:48.501Z,3.10
2018-12-08T06:20:15.954Z,3.93
2018-12-08T06:22:43.252Z,2.73
2018-12-08T06:25:16.485Z,3.27
2018-12-08T06:27:50.020Z,3.10
2018-12-08T06:30:17.405Z,2.53
2018-12-08T06:32:44.724Z,2.93
2018-12-08T06:35:12.116Z,2.93
2018-12-08T06:37:39.340Z,2.80
2018-12-08T06:40:06.579Z,3.37
2018-12-08T06:42:33.799Z,3.00
2018-12-08T06:45:01.053Z,4.07
2018-12-08T06:47:28.281Z,3.10
2018-12-08T06:49:55.557Z,3.77
2018-12-08T06:52:22.831Z,3.40
2018-12-08T06:54:50.184Z,3.53
2018-12-08T06:57:17.419Z,3.40
2018-12-08T06:59:44.667Z,3.57
2018-12-08T07:02:11.883Z,4.40
2018-12-08T07:04:39.119Z,3.87
2018-12-08T07:07:06.500Z,4.00
2018-12-08T07:09:33.750Z,2.93
2018-12-08T07:12:01.099Z,2.83
2018-12-08T07:14:28.404Z,3.73
2018-12-08T07:16:55.633Z,3.57
2018-12-08T07:19:22.868Z,3.67
2018-12-08T07:21:50.129Z,4.13
2018-12-08T07:24:17.470Z,3.93
2018-12-08T07:26:44.769Z,3.93
2018-12-08T07:29:12.023Z,4.00
2018-12-08T07:31:39.359Z,3.50
2018-12-08T07:34:06.683Z,3.70
2018-12-08T07:36:33.938Z,2.93
2018-12-08T07:39:07.902Z,3.40
2018-12-08T07:41:35.176Z,3.87
2018-12-08T07:44:02.421Z,3.00
2018-12-08T07:46:29.652Z,2.97
2018-12-08T07:48:56.908Z,3.73
2018-12-08T07:51:24.143Z,3.23
2018-12-08T07:53:51.360Z,3.83
2018-12-08T07:56:18.717Z,2.90
2018-12-08T07:58:45.971Z,3.97
2018-12-08T08:01:13.184Z,3.20
2018-12-08T08:03:40.465Z,3.33
2018-12-08T08:06:07.693Z,2.87
2018-12-08T08:08:35.004Z,2.80
2018-12-08T08:11:02.378Z,2.70
2018-12-08T08:13:29.624Z,2.50
2018-12-08T08:15:56.852Z,2.23
2018-12-08T08:18:24.105Z,2.33
2018-12-08T08:20:51.320Z,2.40
2018-12-08T08:23:18.528Z,1.90
2018-12-08T08:25:45.889Z,2.37
2018-12-08T08:28:13.171Z,2.03
2018-12-08T08:30:40.404Z,2.17
2018-12-08T08:33:07.664Z,1.77
2018-12-08T08:35:34.989Z,1.73
2018-12-08T08:38:02.221Z,1.30
2018-12-08T08:40:29.589Z,1.30
2018-12-08T08:42:56.811Z,0.80
2018-12-08T08:45:24.074Z,0.50
2018-12-08T08:47:51.349Z,0.90
2018-12-08T08:50:18.680Z,0.97
2018-12-08T08:52:46.032Z,1.00
2018-12-08T08:55:13.433Z,0.90
2018-12-08T08:57:40.637Z,0.80
2018-12-08T09:00:09.485Z,0.80
2018-12-08T09:02:36.856Z,0.83
2018-12-08T09:05:05.465Z,0.60
2018-12-08T09:07:32.822Z,0.80
2018-12-08T09:10:00.077Z,0.43
2018-12-08T09:12:27.425Z,0.40
2018-12-08T09:14:54.658Z,0.60
2018-12-08T09:17:21.918Z,0.73
2018-12-08T09:19:49.149Z,0.63
2018-12-08T09:22:16.390Z,0.93
2018-12-08T09:24:43.760Z,0.70
2018-12-08T09:27:11.045Z,1.63
2018-12-08T09:29:38.381Z,0.90
2018-12-08T09:32:05.843Z,0.77
2018-12-08T09:34:33.211Z,0.93
2018-12-08T09:37:00.565Z,1.00
2018-12-08T09:39:28.033Z,0.80
2018-12-08T09:41:55.372Z,0.87
2018-12-08T09:44:22.673Z,1.23
2018-12-08T09:46:49.910Z,1.03
2018-12-08T09:49:17.133Z,1.23
2018-12-08T09:51:44.397Z,1.50
2018-12-08T09:54:11.663Z,1.10
2018-12-08T09:56:38.919Z,1.47
2018-12-08T09:59:06.120Z,1.00
2018-12-08T10:01:33.410Z,1.23
2018-12-08T10:04:00.647Z,1.33
2018-12-08T10:06:27.885Z,1.30
2018-12-08T10:08:55.181Z,2.13
2018-12-08T10:11:22.543Z,1.80
2018-12-08T10:13:49.844Z,2.10
2018-12-08T10:16:17.106Z,2.33
2018-12-08T10:18:44.361Z,2.30
2018-12-08T10:21:11.576Z,2.93
2018-12-08T10:23:38.827Z,2.63
2018-12-08T10:26:06.084Z,3.47
2018-12-08T10:28:33.295Z,3.70
2018-12-08T10:31:00.619Z,4.10
2018-12-08T10:33:28.319Z,4.00
2018-12-08T10:35:55.699Z,4.33
2018-12-08T10:38:23.208Z,4.30
2018-12-08T10:40:50.560Z,5.03
2018-12-08T10:43:17.806Z,5.40
2018-12-08T10:45:45.072Z,5.07
2018-12-08T10:48:12.271Z,5.40
2018-12-08T10:50:39.523Z,5.73
2018-12-08T10:53:06.896Z,6.27
2018-12-08T10:55:34.128Z,6.40
2018-12-08T10:58:01.474Z,6.57
2018-12-08T11:00:34.588Z,7.17
2018-12-08T11:03:07.596Z,7.50
2018-12-08T11:05:35.110Z,7.27
2018-12-08T11:08:02.357Z,8.23
2018-12-08T11:10:29.716Z,8.50
2018-12-08T11:12:57.107Z,7.33
2018-12-08T11:15:24.353Z,8.23
2018-12-08T11:17:51.594Z,8.80
2018-12-08T11:20:18.954Z,8.77
2018-12-08T11:22:46.201Z,7.53
2018-12-08T11:25:13.546Z,9.33
2018-12-08T11:27:40.788Z,7.87
2018-12-08T11:30:08.237Z,7.70
2018-12-08T11:32:35.447Z,8.20
2018-12-08T11:35:02.957Z,9.20
2018-12-08T11:37:30.223Z,9.27
2018-12-08T11:39:57.489Z,8.43
2018-12-08T11:42:24.744Z,7.50
2018-12-08T11:44:52.188Z,10.30
2018-12-08T11:47:19.545Z,8.80
2018-12-08T11:49:46.849Z,8.17
2018-12-08T11:52:14.097Z,7.67
2018-12-08T11:54:41.333Z,8.10
2018-12-08T11:57:10.329Z,8.57
2018-12-08T11:59:37.787Z,7.33
2018-12-08T12:02:05.519Z,8.23
2018-12-08T12:04:32.873Z,8.60
2018-12-08T12:07:00.157Z,8.30
2018-12-08T12:09:27.416Z,9.77
2018-12-08T12:11:54.661Z,10.27
2018-12-08T12:14:53.069Z,9.17
2018-12-08T12:17:20.370Z,9.33
2018-12-08T12:19:47.609Z,8.57
2018-12-08T12:22:14.873Z,8.53
2018-12-08T12:24:42.164Z,8.63
2018-12-08T12:27:09.570Z,8.53
2018-12-08T12:29:36.929Z,7.97
2018-12-08T12:32:04.300Z,7.73
2018-12-08T12:34:31.554Z,7.50
2018-12-08T12:36:58.935Z,8.20
2018-12-08T12:39:26.174Z,7.77
2018-12-08T12:41:53.594Z,7.60
2018-12-08T12:44:21.009Z,7.60
2018-12-08T12:46:48.315Z,8.43
2018-12-08T12:49:15.575Z,8.20
2018-12-08T12:51:42.938Z,8.67
2018-12-08T12:54:10.200Z,8.40
2018-12-08T12:56:37.432Z,7.70
2018-12-08T12:59:04.751Z,8.40
2018-12-08T13:01:32.152Z,8.73
2018-12-08T13:03:59.592Z,8.13
2018-12-08T13:06:26.937Z,8.23
2018-12-08T13:08:54.657Z,8.20
2018-12-08T13:11:21.955Z,8.00
2018-12-08T13:13:49.223Z,8.07
2018-12-08T13:16:16.737Z,7.73
2018-12-08T13:18:43.998Z,7.73
2018-12-08T13:21:11.235Z,8.07
2018-12-08T13:23:38.501Z,7.90
2018-12-08T13:26:05.877Z,8.37
2018-12-08T13:28:33.240Z,6.77
2018-12-08T13:31:00.525Z,7.00
2018-12-08T13:33:27.787Z,7.33
2018-12-08T13:35:58.257Z,7.03
2018-12-08T13:38:25.696Z,7.87
2018-12-08T13:40:53.053Z,8.00
2018-12-08T13:43:20.393Z,7.73
2018-12-08T13:45:47.851Z,8.20
2018-12-08T13:48:17.065Z,7.07
2018-12-08T13:50:44.516Z,7.53
2018-12-08T13:53:11.785Z,6.93
2018-12-08T13:55:39.204Z,6.90
2018-12-08T13:58:06.557Z,6.60
2018-12-08T14:00:34.069Z,6.47
2018-12-08T14:03:01.340Z,7.03
2018-12-08T14:05:28.641Z,6.70
2018-12-08T14:07:55.965Z,6.03
2018-12-08T14:10:23.241Z,6.60
2018-12-08T14:12:50.773Z,6.37
2018-12-08T14:15:26.370Z,6.23
2018-12-08T14:17:53.732Z,5.70
2018-12-08T14:20:26.271Z,5.77
2018-12-08T14:22:54.501Z,5.37
2018-12-08T14:25:22.062Z,5.40
2018-12-08T14:27:49.517Z,5.33
2018-12-08T14:30:16.815Z,5.10
2018-12-08T14:32:44.198Z,4.90
2018-12-08T14:35:11.717Z,4.50
2018-12-08T14:37:39.200Z,4.27
2018-12-08T14:40:07.817Z,5.33
2018-12-08T14:42:35.141Z,5.73
2018-12-08T14:45:02.469Z,5.00
2018-12-08T14:47:29.864Z,5.23
2018-12-08T14:49:57.147Z,4.63
2018-12-08T14:52:24.389Z,4.87
2018-12-08T14:54:51.728Z,5.13
2018-12-08T14:57:18.996Z,4.23
2018-12-08T14:59:46.329Z,4.03
2018-12-08T15:02:13.697Z,4.47
2018-12-08T15:04:40.988Z,3.37
2018-12-08T15:07:08.215Z,3.53
2018-12-08T15:09:35.568Z,3.77
2018-12-08T15:12:02.925Z,3.33
2018-12-08T15:14:30.200Z,3.10
2018-12-08T15:16:57.578Z,4.07
2018-12-08T15:19:24.881Z,3.63
2018-12-08T15:21:52.111Z,3.37
2018-12-08T15:24:19.389Z,3.50
2018-12-08T15:26:46.818Z,3.93
2018-12-08T15:29:14.253Z,4.07
2018-12-08T15:31:41.525Z,4.30
2018-12-08T15:34:08.946Z,3.53
2018-12-08T15:36:36.219Z,4.43
2018-12-08T15:39:05.573Z,4.17
2018-12-08T15:41:33.009Z,3.97
2018-12-08T15:44:00.247Z,3.40
2018-12-08T15:46:27.601Z,3.67
2018-12-08T15:48:55.094Z,3.30
2018-12-08T15:51:22.377Z,3.40
2018-12-08T15:53:49.721Z,3.33
2018-12-08T15:56:16.995Z,3.27
2018-12-08T15:58:44.373Z,3.00
2018-12-08T16:01:11.848Z,3.27
2018-12-08T16:03:39.207Z,4.57
2018-12-08T16:06:06.564Z,3.03
2018-12-08T16:08:33.905Z,2.93
2018-12-08T16:11:01.186Z,2.93
2018-12-08T16:13:28.443Z,3.00
2018-12-08T16:15:55.860Z,2.93
2018-12-08T16:18:23.322Z,3.50
2018-12-08T16:20:50.701Z,3.10
2018-12-08T16:23:18.184Z,3.10
2018-12-08T16:25:45.708Z,3.37
2018-12-08T16:28:13.116Z,3.23
2018-12-08T16:30:40.625Z,3.07
2018-12-08T16:33:08.254Z,3.43
2018-12-08T16:35:35.623Z,3.77
2018-12-08T16:38:02.981Z,4.10
2018-12-08T16:40:30.402Z,3.50
2018-12-08T16:42:57.658Z,3.63
2018-12-08T16:45:25.121Z,3.43
2018-12-08T16:47:52.441Z,3.33
2018-12-08T16:50:19.682Z,2.97
2018-12-08T16:52:46.966Z,2.80
2018-12-08T16:55:14.483Z,2.90
2018-12-08T16:57:41.924Z,3.47
2018-12-08T17:00:09.255Z,3.93
2018-12-08T17:02:36.641Z,3.57
2018-12-08T17:05:04.128Z,3.83
2018-12-08T17:07:31.673Z,3.57
2018-12-08T17:09:59.053Z,3.83
2018-12-08T17:12:26.409Z,3.70
2018-12-08T17:14:53.773Z,3.10
2018-12-08T17:17:21.054Z,3.90
2018-12-08T17:19:48.529Z,3.60
2018-12-08T17:22:15.872Z,3.07
2018-12-08T17:24:43.247Z,3.10
2018-12-08T17:27:10.591Z,3.03
2018-12-08T17:29:37.947Z,3.33
2018-12-08T17:32:05.317Z,3.50
2018-12-08T17:34:32.651Z,3.17
2018-12-08T17:37:00.071Z,2.63
2018-12-08T17:39:27.496Z,2.60
2018-12-08T17:41:55.047Z,2.73
2018-12-08T17:44:22.554Z,2.83
2018-12-08T17:46:49.840Z,2.70
2018-12-08T17:49:17.089Z,1.50
2018-12-08T17:51:44.341Z,1.90
2018-12-08T17:54:11.692Z,1.70
2018-12-08T17:56:39.140Z,1.73
2018-12-08T17:59:07.299Z,1.70
2018-12-08T18:01:34.825Z,1.60
2018-12-08T18:04:02.060Z,1.83
2018-12-08T18:06:29.444Z,2.10
2018-12-08T18:08:56.696Z,2.13
2018-12-08T18:11:24.069Z,1.73
2018-12-08T18:13:51.425Z,1.80
2018-12-08T18:16:18.932Z,1.70
2018-12-08T18:18:46.294Z,2.70
2018-12-08T18:21:13.603Z,2.63
2018-12-08T18:23:40.964Z,2.57
2018-12-08T18:26:08.225Z,2.43
2018-12-08T18:28:35.589Z,2.40
2018-12-08T18:31:03.157Z,2.23
2018-12-08T18:33:30.536Z,2.40
2018-12-08T18:35:57.893Z,2.43
2018-12-08T18:38:25.328Z,2.00
2018-12-08T18:40:52.657Z,2.17
2018-12-08T18:43:19.855Z,1.90
2018-12-08T18:45:47.138Z,2.07
2018-12-08T18:48:14.479Z,2.37
2018-12-08T18:50:41.749Z,2.30
2018-12-08T18:53:09.292Z,1.93
2018-12-08T18:55:36.632Z,2.13
2018-12-08T18:58:04.019Z,1.90
2018-12-08T19:00:31.522Z,1.87
2018-12-08T19:02:58.788Z,2.37
2018-12-08T19:05:26.029Z,2.40
2018-12-08T19:07:53.299Z,2.77
2018-12-08T19:10:20.683Z,2.90
2018-12-08T19:12:48.111Z,3.50
2018-12-08T19:15:15.393Z,2.83
2018-12-08T19:17:42.756Z,2.13
2018-12-08T19:20:10.200Z,2.77
2018-12-08T19:22:37.489Z,3.37
2018-12-08T19:25:05.833Z,3.40
2018-12-08T19:27:33.114Z,2.70
2018-12-08T19:30:00.478Z,2.50
2018-12-08T19:32:27.731Z,3.77
2018-12-08T19:34:55.066Z,3.50
2018-12-08T19:37:22.349Z,4.00
2018-12-08T19:39:49.592Z,2.80
2018-12-08T19:42:16.813Z,2.70
2018-12-08T19:44:44.096Z,3.57
2018-12-08T19:47:11.399Z,3.10
2018-12-08T19:49:38.625Z,3.30
2018-12-08T19:52:05.897Z,2.37
2018-12-08T19:54:33.263Z,2.20
2018-12-08T19:57:00.676Z,3.20
2018-12-08T19:59:27.933Z,3.93
2018-12-08T20:01:55.217Z,3.23
2018-12-08T20:04:22.460Z,2.27
2018-12-08T20:06:49.944Z,3.30
2018-12-08T20:09:17.208Z,3.87
2018-12-08T20:11:44.591Z,3.40
2018-12-08T20:14:11.885Z,3.00
2018-12-08T20:16:39.131Z,2.93
2018-12-08T20:19:06.533Z,2.70
2018-12-08T20:21:33.989Z,3.60
2018-12-08T20:24:01.280Z,2.30
2018-12-08T20:26:28.505Z,2.40
2018-12-08T20:28:55.821Z,2.50
2018-12-08T20:31:23.052Z,2.80
2018-12-08T20:33:50.314Z,2.47
2018-12-08T20:36:17.586Z,2.50
2018-12-08T20:38:44.829Z,2.27
2018-12-08T20:41:12.045Z,2.30
2018-12-08T20:43:39.333Z,2.80
2018-12-08T20:46:06.629Z,2.70
2018-12-08T20:48:33.881Z,2.40
2018-12-08T20:51:01.220Z,2.20
2018-12-08T20:53:28.435Z,2.60
2018-12-08T20:55:55.642Z,2.60
2018-12-08T20:58:22.918Z,2.53
2018-12-08T21:00:50.156Z,2.63
2018-12-08T21:03:17.490Z,2.10
2018-12-08T21:05:44.767Z,2.73
2018-12-08T21:08:12.109Z,3.23
2018-12-08T21:10:39.485Z,2.50
2018-12-08T21:13:06.829Z,2.93
2018-12-08T21:15:34.318Z,3.17
2018-12-08T21:18:01.706Z,2.80
2018-12-08T21:20:28.977Z,2.80
2018-12-08T21:22:56.225Z,2.67
2018-12-08T21:25:23.707Z,3.03
2018-12-08T21:27:50.945Z,3.13
2018-12-08T21:30:18.289Z,2.43
2018-12-08T21:32:45.534Z,2.73
2018-12-08T21:35:12.782Z,2.67
2018-12-08T21:37:40.006Z,2.97
2018-12-08T21:40:14.526Z,3.27
2018-12-08T21:42:41.797Z,3.20
2018-12-08T21:45:09.248Z,3.33
2018-12-08T21:47:36.566Z,2.33
2018-12-08T21:50:04.178Z,3.67
2018-12-08T21:52:31.405Z,2.90
2018-12-08T21:54:58.683Z,3.10
2018-12-08T21:57:25.919Z,3.83
2018-12-08T21:59:53.146Z,2.93
2018-12-08T22:02:20.420Z,3.07
2018-12-08T22:04:47.701Z,4.13
2018-12-08T22:07:15.054Z,3.87
2018-12-08T22:09:42.585Z,3.77
2018-12-08T22:12:09.833Z,3.17
2018-12-08T22:14:41.792Z,3.57
2018-12-08T22:17:09.149Z,3.70
2018-12-08T22:19:36.391Z,3.43
2018-12-08T22:22:03.773Z,4.10
2018-12-08T22:24:31.069Z,3.83
2018-12-08T22:26:58.325Z,3.33
2018-12-08T22:29:25.528Z,3.57
2018-12-08T22:31:52.827Z,4.73
2018-12-08T22:34:20.100Z,4.23
2018-12-08T22:36:47.370Z,3.57
2018-12-08T22:39:14.664Z,4.20
2018-12-08T22:41:41.904Z,3.83
2018-12-08T22:44:09.174Z,3.37
2018-12-08T22:46:36.940Z,2.90
2018-12-08T22:49:04.195Z,2.83
2018-12-08T22:51:31.522Z,2.63
2018-12-08T22:53:58.989Z,3.63
2018-12-08T22:56:26.320Z,3.47
2018-12-08T22:58:53.597Z,3.27
2018-12-08T23:01:21.411Z,4.63
2018-12-08T23:03:48.790Z,4.47
2018-12-08T23:06:16.715Z,3.53
2018-12-08T23:08:44.139Z,3.30
2018-12-08T23:11:11.449Z,3.30
2018-12-08T23:13:39.893Z,3.47
2018-12-08T23:16:10.917Z,3.17
2018-12-08T23:18:38.146Z,3.30
2018-12-08T23:21:05.505Z,4.23
2018-12-08T23:23:32.793Z,3.40
2018-12-08T23:26:00.136Z,3.57
2018-12-08T23:28:27.393Z,3.37
2018-12-08T23:30:54.656Z,4.23
2018-12-08T23:33:21.949Z,3.43
2018-12-08T23:35:49.534Z,3.73
2018-12-08T23:38:16.853Z,3.50
2018-12-08T23:40:44.106Z,4.87
2018-12-08T23:43:11.358Z,3.57
2018-12-08T23:45:38.605Z,3.93
2018-12-08T23:48:05.858Z,4.00
2018-12-08T23:50:33.141Z,3.97
2018-12-08T23:53:00.724Z,3.47
2018-12-08T23:55:28.110Z,4.00
2018-12-08T23:57:55.375Z,5.13
